createdAt,value
2022-09-04T00:02:15.122Z,16.83
2022-09-04T00:04:47.015Z,10.60
2022-09-04T00:07:23.661Z,12.18
2022-09-04T00:09:59.345Z,15.35
2022-09-04T00:12:34.990Z,13.38
2022-09-04T00:15:27.780Z,11.88
2022-09-04T00:18:12.209Z,14.20
2022-09-04T00:20:45.866Z,11.50
2022-09-04T00:23:34.290Z,8.73
2022-09-04T00:26:14.284Z,11.32
2022-09-04T00:28:45.224Z,11.88
2022-09-04T00:31:27.158Z,20.73
2022-09-04T00:34:21.689Z,13.50
2022-09-04T00:36:54.654Z,14.85
2022-09-04T00:39:31.351Z,9.27
2022-09-04T00:42:05.757Z,15.80
2022-09-04T00:44:54.891Z,15.60
2022-09-04T00:47:43.954Z,12.80
2022-09-04T00:50:44.530Z,9.82
2022-09-04T00:53:37.723Z,14.73
2022-09-04T00:56:23.171Z,18.27
2022-09-04T00:58:50.039Z,17.65
2022-09-04T01:01:23.641Z,14.48
2022-09-04T01:04:12.375Z,15.75
2022-09-04T01:06:47.635Z,17.17
2022-09-04T01:09:31.240Z,17.17
2022-09-04T01:12:32.370Z,15.52
2022-09-04T01:15:28.401Z,11.18
2022-09-04T01:18:11.407Z,13.25
2022-09-04T01:21:24.141Z,14.35
2022-09-04T01:24:12.237Z,11.52
2022-09-04T01:27:13.309Z,15.38
2022-09-04T01:30:06.900Z,12.05
2022-09-04T01:33:07.196Z,13.80
2022-09-04T01:36:03.387Z,17.50
2022-09-04T01:38:37.811Z,13.52
2022-09-04T01:41:21.862Z,10.82
2022-09-04T01:43:50.063Z,15.95
2022-09-04T01:46:41.779Z,18.60
2022-09-04T01:49:32.598Z,16.20
2022-09-04T01:52:05.347Z,19.23
2022-09-04T01:54:49.842Z,14.02
2022-09-04T01:57:32.068Z,12.88
2022-09-04T02:00:10.488Z,13.73
2022-09-04T02:03:02.633Z,10.82
2022-09-04T02:05:55.085Z,16.62
2022-09-04T02:08:55.360Z,14.13
2022-09-04T02:11:28.985Z,18.37
2022-09-04T02:14:21.655Z,14.50
2022-09-04T02:17:18.448Z,13.93
2022-09-04T02:20:23.833Z,13.05
2022-09-04T02:23:24.641Z,13.98
2022-09-04T02:26:18.910Z,16.60
2022-09-04T02:29:20.058Z,13.75
2022-09-04T02:32:07.194Z,11.20
2022-09-04T02:34:53.418Z,13.65
2022-09-04T02:37:42.281Z,14.87
2022-09-04T02:40:27.827Z,16.20
2022-09-04T02:43:37.304Z,15.90
2022-09-04T02:46:34.467Z,18.50
2022-09-04T02:49:48.563Z,10.65
2022-09-04T02:52:50.805Z,16.77
2022-09-04T02:55:52.723Z,17.40
2022-09-04T02:58:57.761Z,13.32
2022-09-04T03:01:36.665Z,16.95
2022-09-04T03:04:18.209Z,22.10
2022-09-04T03:06:53.931Z,18.40
2022-09-04T03:09:37.570Z,17.80
2022-09-04T03:12:11.146Z,12.88
2022-09-04T03:14:51.766Z,12.50
2022-09-04T03:17:38.166Z,18.40
2022-09-04T03:20:28.833Z,11.27
2022-09-04T03:22:58.742Z,10.82
2022-09-04T03:25:45.663Z,10.52
2022-09-04T03:28:26.920Z,13.15
2022-09-04T03:30:57.403Z,10.48
2022-09-04T03:33:39.819Z,11.35
2022-09-04T03:36:14.476Z,14.23
2022-09-04T03:39:02.658Z,13.62
2022-09-04T03:41:55.351Z,20.45
2022-09-04T03:45:07.227Z,28.92
2022-09-04T03:47:49.419Z,21.75
2022-09-04T03:50:39.577Z,21.87
2022-09-04T03:53:22.160Z,19.90
2022-09-04T03:56:22.874Z,16.48
2022-09-04T03:59:08.773Z,24.73
2022-09-04T04:02:01.345Z,23.08
2022-09-04T04:04:46.253Z,19.25
2022-09-04T04:07:24.401Z,17.70
2022-09-04T04:10:22.255Z,16.08
2022-09-04T04:13:05.359Z,15.43
2022-09-04T04:15:35.230Z,20.15
2022-09-04T04:18:37.878Z,16.95
2022-09-04T04:21:29.027Z,21.65
2022-09-04T04:24:08.250Z,21.30
2022-09-04T04:26:44.370Z,17.40
2022-09-04T04:29:26.685Z,14.35
2022-09-04T04:32:17.312Z,23.25
2022-09-04T04:34:56.499Z,15.60
2022-09-04T04:37:43.615Z,17.40
2022-09-04T04:40:16.512Z,22.58
2022-09-04T04:43:12.959Z,15.38
2022-09-04T04:46:06.096Z,18.20
2022-09-04T04:49:00.535Z,17.42
2022-09-04T04:52:15.895Z,19.17
2022-09-04T04:55:13.393Z,20.17
2022-09-04T04:57:55.757Z,16.65
2022-09-04T05:00:40.704Z,21.60
2022-09-04T05:03:21.690Z,15.20
2022-09-04T05:06:14.004Z,12.75
2022-09-04T05:09:05.518Z,20.35
2022-09-04T05:11:40.729Z,17.05
2022-09-04T05:14:23.675Z,18.20
2022-09-04T05:17:05.798Z,21.08
2022-09-04T05:19:41.555Z,19.15
2022-09-04T05:22:34.436Z,20.45
2022-09-04T05:25:14.778Z,27.83
2022-09-04T05:28:03.520Z,19.35
2022-09-04T05:30:59.224Z,18.40
2022-09-04T05:33:31.788Z,19.65
2022-09-04T05:36:02.326Z,17.65
2022-09-04T05:38:49.668Z,18.33
2022-09-04T05:41:38.234Z,12.60
2022-09-04T05:44:14.642Z,21.95
2022-09-04T05:46:41.720Z,17.23
2022-09-04T05:49:50.575Z,23.20
2022-09-04T05:52:34.515Z,21.87
2022-09-04T05:55:31.999Z,15.18
2022-09-04T05:58:11.059Z,15.07
2022-09-04T06:00:53.598Z,15.05
2022-09-04T06:03:45.132Z,20.00
2022-09-04T06:06:24.453Z,17.15
2022-09-04T06:09:05.963Z,16.02
2022-09-04T06:12:05.228Z,20.80
2022-09-04T06:14:38.579Z,20.23
2022-09-04T06:17:37.233Z,17.27
2022-09-04T06:20:42.759Z,15.75
2022-09-04T06:23:21.277Z,19.77
2022-09-04T06:26:25.876Z,18.37
2022-09-04T06:29:01.340Z,16.27
2022-09-04T06:31:52.119Z,16.98
2022-09-04T06:34:37.612Z,18.85
2022-09-04T06:37:26.083Z,27.30
2022-09-04T06:40:21.579Z,17.48
2022-09-04T06:43:12.872Z,18.80
2022-09-04T06:46:08.179Z,16.58
2022-09-04T06:49:08.695Z,9.88
2022-09-04T06:51:44.528Z,16.73
2022-09-04T06:54:32.655Z,10.95
2022-09-04T06:57:57.151Z,13.48
2022-09-04T07:00:25.301Z,15.38
2022-09-04T07:03:13.808Z,21.60
2022-09-04T07:06:05.325Z,14.57
2022-09-04T07:08:51.106Z,10.80
2022-09-04T07:11:17.964Z,8.40
2022-09-04T07:14:04.516Z,11.30
2022-09-04T07:16:55.785Z,11.43
2022-09-04T07:19:34.942Z,9.23
2022-09-04T07:22:23.752Z,13.93
2022-09-04T07:24:57.149Z,13.55
2022-09-04T07:27:36.387Z,10.88
2022-09-04T07:30:12.099Z,16.92
2022-09-04T07:32:54.312Z,9.70
2022-09-04T07:35:59.434Z,14.45
2022-09-04T07:38:50.866Z,15.30
2022-09-04T07:41:20.086Z,13.93
2022-09-04T07:43:54.688Z,12.75
2022-09-04T07:46:49.395Z,8.82
2022-09-04T07:49:29.310Z,15.68
2022-09-04T07:52:10.330Z,10.25
2022-09-04T07:54:59.235Z,13.52
2022-09-04T07:57:34.115Z,11.90
2022-09-04T08:00:13.589Z,16.02
2022-09-04T08:03:07.107Z,17.12
2022-09-04T08:05:55.788Z,13.75
2022-09-04T08:08:42.905Z,22.20
2022-09-04T08:11:18.452Z,19.77
2022-09-04T08:14:42.672Z,20.80
2022-09-04T08:17:20.943Z,16.40
2022-09-04T08:20:10.649Z,20.20
2022-09-04T08:22:37.523Z,14.02
2022-09-04T08:25:46.332Z,16.25
2022-09-04T08:28:17.609Z,15.35
2022-09-04T08:31:01.767Z,16.95
2022-09-04T08:33:49.186Z,14.35
2022-09-04T08:36:49.020Z,14.32
2022-09-04T08:39:25.124Z,15.13
2022-09-04T08:42:10.034Z,15.90
2022-09-04T08:45:03.387Z,11.63
2022-09-04T08:47:58.179Z,14.27
2022-09-04T08:50:40.172Z,19.10
2022-09-04T08:53:27.660Z,17.87
2022-09-04T08:56:22.508Z,17.70
2022-09-04T08:59:38.135Z,13.85
2022-09-04T09:02:26.939Z,16.02
2022-09-04T09:05:45.767Z,17.25
2022-09-04T09:08:46.652Z,18.95
2022-09-04T09:11:31.862Z,16.67
2022-09-04T09:14:02.196Z,19.02
2022-09-04T09:17:00.263Z,14.85
2022-09-04T09:19:50.823Z,22.87
2022-09-04T09:22:36.091Z,19.52
2022-09-04T09:25:21.433Z,13.62
2022-09-04T09:27:48.334Z,21.80
2022-09-04T09:30:21.159Z,20.10
2022-09-04T09:33:12.697Z,19.25
2022-09-04T09:35:56.074Z,21.30
2022-09-04T09:38:43.717Z,15.73
2022-09-04T09:41:38.808Z,15.43
2022-09-04T09:44:24.427Z,13.70
2022-09-04T09:47:24.941Z,16.25
2022-09-04T09:49:57.787Z,15.63
2022-09-04T09:52:48.350Z,23.17
2022-09-04T09:55:25.007Z,18.83
2022-09-04T09:58:19.287Z,16.55
2022-09-04T10:01:05.303Z,15.93
2022-09-04T10:03:43.842Z,14.60
2022-09-04T10:07:00.364Z,18.73
2022-09-04T10:09:48.288Z,18.95
2022-09-04T10:12:36.547Z,22.15
2022-09-04T10:15:40.582Z,22.37
2022-09-04T10:18:51.502Z,18.60
2022-09-04T10:21:20.794Z,14.45
2022-09-04T10:24:08.256Z,16.20
2022-09-04T10:26:56.850Z,27.05
2022-09-04T10:29:45.171Z,19.52
2022-09-04T10:32:40.213Z,14.60
2022-09-04T10:35:34.843Z,14.32
2022-09-04T10:38:27.508Z,17.45
2022-09-04T10:41:15.000Z,18.85
2022-09-04T10:44:09.910Z,18.48
2022-09-04T10:46:43.035Z,19.33
2022-09-04T10:49:30.475Z,19.48
2022-09-04T10:52:30.414Z,17.27
2022-09-04T10:55:03.260Z,16.30
2022-09-04T10:57:45.544Z,23.27
2022-09-04T11:00:26.877Z,14.13
2022-09-04T11:02:57.146Z,21.77
2022-09-04T11:05:31.468Z,17.77
2022-09-04T11:08:20.359Z,15.18
2022-09-04T11:11:08.966Z,14.45
2022-09-04T11:14:14.764Z,10.35
2022-09-04T11:17:06.065Z,10.38
2022-09-04T11:19:45.287Z,14.77
2022-09-04T11:22:51.261Z,11.25
2022-09-04T11:25:55.835Z,8.15
2022-09-04T11:28:34.579Z,13.88
2022-09-04T11:31:07.624Z,12.80
2022-09-04T11:33:46.457Z,11.82
2022-09-04T11:36:40.898Z,13.80
2022-09-04T11:39:35.294Z,9.35
2022-09-04T11:42:20.588Z,5.45
2022-09-04T11:45:00.571Z,8.52
2022-09-04T11:47:57.730Z,6.65
2022-09-04T11:50:57.286Z,8.02
2022-09-04T11:53:46.027Z,7.12
2022-09-04T11:56:37.727Z,7.07
2022-09-04T11:59:24.144Z,6.45
2022-09-04T12:02:10.463Z,7.60
2022-09-04T12:04:51.036Z,9.55
2022-09-04T12:07:45.970Z,4.40
2022-09-04T12:10:47.841Z,4.57
2022-09-04T12:13:40.170Z,4.87
2022-09-04T12:16:27.300Z,5.53
2022-09-04T12:19:27.047Z,5.62
2022-09-04T12:22:35.963Z,7.68
2022-09-04T12:25:25.258Z,6.07
2022-09-04T12:28:21.356Z,6.82
2022-09-04T12:31:10.058Z,6.70
2022-09-04T12:33:56.903Z,8.13
2022-09-04T12:36:33.363Z,6.57
2022-09-04T12:39:43.075Z,6.15
2022-09-04T12:42:39.843Z,8.68
2022-09-04T12:45:40.997Z,9.30
2022-09-04T12:48:33.256Z,6.03
2022-09-04T12:51:21.322Z,7.22
2022-09-04T12:54:09.092Z,6.18
2022-09-04T12:57:00.908Z,6.15
2022-09-04T12:59:54.749Z,5.25
2022-09-04T13:02:39.439Z,5.55
2022-09-04T13:05:53.558Z,5.35
2022-09-04T13:08:35.720Z,4.90
2022-09-04T13:11:08.961Z,3.97
2022-09-04T13:13:57.046Z,4.82
2022-09-04T13:16:43.845Z,5.50
2022-09-04T13:19:20.061Z,4.35
2022-09-04T13:22:14.731Z,5.45
2022-09-04T13:25:07.540Z,4.65
2022-09-04T13:28:04.732Z,7.00
2022-09-04T13:30:34.460Z,4.37
2022-09-04T13:33:20.289Z,4.10
2022-09-04T13:36:19.189Z,4.95
2022-09-04T13:38:49.201Z,8.05
2022-09-04T13:41:54.448Z,6.72
2022-09-04T13:44:44.279Z,7.70
2022-09-04T13:47:32.454Z,8.15
2022-09-04T13:50:10.287Z,6.70
2022-09-04T13:52:55.827Z,6.35
2022-09-04T13:55:33.231Z,7.15
2022-09-04T13:58:16.980Z,7.37
2022-09-04T14:00:53.582Z,8.77
2022-09-04T14:03:51.519Z,9.50
2022-09-04T14:06:22.571Z,10.77
2022-09-04T14:09:04.932Z,10.25
2022-09-04T14:11:58.117Z,11.07
2022-09-04T14:14:41.388Z,8.10
2022-09-04T14:17:09.709Z,8.95
2022-09-04T14:20:12.578Z,8.18
2022-09-04T14:23:00.977Z,10.30
2022-09-04T14:25:40.923Z,15.32
2022-09-04T14:28:35.969Z,11.63
2022-09-04T14:31:11.601Z,14.60
2022-09-04T14:34:17.549Z,14.10
2022-09-04T14:37:08.251Z,9.23
2022-09-04T14:39:57.912Z,10.98
2022-09-04T14:42:52.159Z,12.05
2022-09-04T14:45:35.599Z,15.25
2022-09-04T14:48:11.619Z,14.73
2022-09-04T14:50:54.339Z,12.63
2022-09-04T14:53:32.480Z,9.18
2022-09-04T14:56:17.913Z,11.23
2022-09-04T14:59:10.419Z,12.05
2022-09-04T15:02:15.417Z,8.02
2022-09-04T15:04:44.726Z,10.18
2022-09-04T15:07:29.774Z,11.57
2022-09-04T15:10:24.580Z,8.02
2022-09-04T15:13:22.792Z,9.70
2022-09-04T15:15:55.132Z,7.68
2022-09-04T15:18:30.331Z,5.57
2022-09-04T15:21:03.520Z,8.98
2022-09-04T15:24:01.660Z,6.60
2022-09-04T15:26:52.638Z,10.13
2022-09-04T15:29:39.048Z,9.43
2022-09-04T15:32:13.874Z,9.80
2022-09-04T15:34:41.747Z,8.05
2022-09-04T15:37:27.048Z,7.62
2022-09-04T15:40:22.030Z,6.75
2022-09-04T15:43:11.735Z,10.27
2022-09-04T15:45:53.846Z,8.20
2022-09-04T15:48:42.150Z,10.57
2022-09-04T15:51:29.971Z,6.05
2022-09-04T15:54:15.900Z,5.95
2022-09-04T15:56:48.728Z,12.95
2022-09-04T15:59:18.526Z,8.73
2022-09-04T16:02:27.494Z,10.43
2022-09-04T16:05:03.482Z,6.70
2022-09-04T16:07:40.461Z,8.25
2022-09-04T16:10:24.717Z,6.30
2022-09-04T16:13:09.574Z,7.57
2022-09-04T16:15:43.892Z,9.10
2022-09-04T16:18:18.527Z,8.70
2022-09-04T16:20:53.852Z,6.75
2022-09-04T16:23:30.624Z,6.90
2022-09-04T16:25:59.908Z,7.25
2022-09-04T16:28:33.937Z,11.38
2022-09-04T16:31:03.926Z,13.55
2022-09-04T16:33:53.550Z,15.65
2022-09-04T16:36:28.460Z,9.90
2022-09-04T16:39:05.642Z,8.32
2022-09-04T16:41:38.583Z,9.38
2022-09-04T16:44:26.361Z,6.18
2022-09-04T16:47:06.121Z,8.55
2022-09-04T16:49:54.185Z,6.90
2022-09-04T16:53:12.532Z,9.43
2022-09-04T16:56:36.883Z,7.90
2022-09-04T16:59:22.641Z,8.93
2022-09-04T17:01:59.587Z,12.05
2022-09-04T17:04:39.997Z,9.13
2022-09-04T17:07:07.850Z,11.43
2022-09-04T17:09:46.932Z,14.98
2022-09-04T17:12:18.373Z,13.30
2022-09-04T17:14:57.753Z,11.23
2022-09-04T17:17:31.943Z,11.85
2022-09-04T17:23:53.552Z,13.88
2022-09-04T17:28:56.586Z,14.05
2022-09-04T17:29:08.057Z,18.23
2022-09-04T17:30:06.196Z,18.77
2022-09-04T17:36:49.267Z,13.90
2022-09-04T17:40:40.273Z,19.95
2022-09-04T17:40:46.387Z,15.27
2022-09-04T17:43:21.656Z,21.10
2022-09-04T17:45:53.591Z,17.58
2022-09-04T17:48:28.026Z,31.70
2022-09-04T17:51:00.894Z,15.65
2022-09-04T17:53:34.237Z,24.77
2022-09-04T17:56:14.806Z,19.37
2022-09-04T17:58:41.670Z,25.48
2022-09-04T18:01:29.717Z,20.95
2022-09-04T18:04:31.162Z,15.80
2022-09-04T18:07:33.576Z,17.15
2022-09-04T18:10:31.355Z,15.00
2022-09-04T18:13:37.070Z,19.50
2022-09-04T18:16:18.167Z,14.75
2022-09-04T18:18:58.942Z,17.48
2022-09-04T18:21:41.530Z,19.42
2022-09-04T18:24:26.714Z,21.20
2022-09-04T18:27:06.562Z,18.67
2022-09-04T18:31:04.551Z,19.30
2022-09-04T18:37:11.131Z,21.75
2022-09-04T18:37:19.639Z,19.35
2022-09-04T18:39:14.493Z,16.48
2022-09-04T18:49:32.459Z,15.63
2022-09-04T18:50:50.079Z,20.85
2022-09-04T18:50:52.395Z,17.17
2022-09-04T18:51:20.894Z,18.08
2022-09-04T18:54:20.348Z,17.73
2022-09-04T18:56:53.674Z,18.87
2022-09-04T18:59:32.782Z,18.73
2022-09-04T19:02:05.646Z,17.65
2022-09-04T19:04:45.108Z,18.77
2022-09-04T19:07:32.747Z,18.05
2022-09-04T19:10:18.547Z,19.95
2022-09-04T19:13:02.301Z,21.05
2022-09-04T19:15:50.968Z,22.85
2022-09-04T19:18:25.626Z,15.65
2022-09-04T19:21:14.941Z,12.82
2022-09-04T19:24:05.431Z,13.82
2022-09-04T19:27:04.360Z,21.08
2022-09-04T19:30:05.213Z,14.75
2022-09-04T19:33:10.663Z,15.13
2022-09-04T19:35:44.727Z,15.52
2022-09-04T19:44:22.909Z,16.60
2022-09-04T19:46:01.829Z,14.05
2022-09-04T19:46:16.448Z,14.93
2022-09-04T19:47:28.820Z,17.45
2022-09-04T19:53:23.202Z,16.37
2022-09-04T19:53:32.278Z,16.45
2022-09-04T19:56:26.020Z,12.63
2022-09-04T19:59:21.785Z,17.23
2022-09-04T20:01:58.193Z,12.23
2022-09-04T20:04:46.964Z,14.02
2022-09-04T20:07:26.754Z,13.45
2022-09-04T20:09:57.904Z,14.40
2022-09-04T20:12:27.315Z,13.27
2022-09-04T20:15:18.252Z,11.02
2022-09-04T20:18:19.822Z,12.82
2022-09-04T20:20:58.511Z,14.75
2022-09-04T20:23:39.381Z,12.82
2022-09-04T20:26:09.084Z,11.00
2022-09-04T20:28:55.432Z,15.05
2022-09-04T20:31:36.022Z,14.57
2022-09-04T20:34:38.980Z,14.70
2022-09-04T20:37:39.999Z,12.70
2022-09-04T20:40:19.815Z,13.10
2022-09-04T20:43:03.808Z,14.32
2022-09-04T20:48:51.112Z,12.95
2022-09-04T20:52:48.886Z,13.38
2022-09-04T20:52:58.062Z,11.30
2022-09-04T20:54:28.380Z,13.50
2022-09-04T20:58:36.833Z,17.10
2022-09-04T21:03:06.622Z,18.83
2022-09-04T21:03:29.010Z,15.75
2022-09-04T21:06:16.442Z,16.42
2022-09-04T21:09:06.808Z,16.80
2022-09-04T21:11:43.500Z,23.87
2022-09-04T21:14:18.665Z,20.33
2022-09-04T21:16:54.230Z,21.55
2022-09-04T21:19:36.345Z,21.35
2022-09-04T21:22:32.626Z,23.12
2022-09-04T21:25:20.316Z,26.45
2022-09-04T21:28:24.857Z,25.37
2022-09-04T21:30:59.202Z,24.80
2022-09-04T21:34:07.597Z,26.10
2022-09-04T21:37:08.878Z,33.38
2022-09-04T21:40:21.322Z,29.40
2022-09-04T21:43:10.427Z,22.80
2022-09-04T21:45:52.147Z,27.08
2022-09-04T21:48:46.407Z,31.42
2022-09-04T21:51:30.072Z,28.25
2022-09-04T21:56:22.747Z,27.30
2022-09-04T22:02:29.570Z,32.22
2022-09-04T22:02:47.730Z,27.45
2022-09-04T22:03:26.207Z,23.85
2022-09-04T22:06:04.647Z,22.50
2022-09-04T22:13:30.542Z,24.52
2022-09-04T22:13:41.544Z,31.83
2022-09-04T22:15:18.942Z,32.75
2022-09-04T22:18:14.263Z,45.35
2022-09-04T22:21:15.210Z,36.03
2022-09-04T22:24:18.694Z,86.03
2022-09-04T22:27:04.105Z,40.80
2022-09-04T22:30:10.162Z,39.35
2022-09-04T22:33:12.323Z,85.53
2022-09-04T22:36:13.403Z,64.43
2022-09-04T22:39:07.876Z,69.68
2022-09-04T22:42:03.100Z,178.10
2022-09-04T22:44:36.012Z,101.43
2022-09-04T22:47:27.266Z,65.55
2022-09-04T22:50:48.990Z,46.30
2022-09-04T22:53:34.737Z,59.38
2022-09-04T22:56:23.639Z,24.95
2022-09-04T22:59:27.595Z,31.95
2022-09-04T23:02:54.206Z,22.48
2022-09-04T23:05:54.237Z,31.77
2022-09-04T23:13:10.840Z,27.77
2022-09-04T23:13:57.802Z,31.17
2022-09-04T23:15:11.767Z,33.72
2022-09-04T23:18:40.227Z,30.20
2022-09-04T23:26:44.993Z,28.70
2022-09-04T23:26:46.032Z,25.48
2022-09-04T23:27:38.187Z,29.87
2022-09-04T23:30:12.407Z,29.25
2022-09-04T23:33:06.802Z,28.17
2022-09-04T23:35:57.927Z,27.17
2022-09-04T23:38:51.136Z,18.55
2022-09-04T23:41:47.444Z,27.80
2022-09-04T23:44:57.246Z,23.12
2022-09-04T23:47:48.793Z,24.27
2022-09-04T23:50:50.239Z,30.75
2022-09-04T23:53:42.764Z,22.48
2022-09-04T23:56:09.626Z,24.00
2022-09-04T23:59:34.441Z,24.50
